createdAt,value
2022-10-31T00:01:27.753Z,100696.09
2022-10-31T00:03:54.922Z,100696.09
2022-10-31T00:06:22.873Z,100692.63
2022-10-31T00:08:58.056Z,100695.28
2022-10-31T00:11:25.583Z,100697.91
2022-10-31T00:13:52.901Z,100703.06
2022-10-31T00:16:25.121Z,100703.06
2022-10-31T00:18:54.252Z,100701.38
2022-10-31T00:21:21.739Z,100699.66
2022-10-31T00:23:49.258Z,100710.88
2022-10-31T00:26:16.889Z,100698.81
2022-10-31T00:28:44.692Z,100709.16
2022-10-31T00:31:14.292Z,100701.38
2022-10-31T00:33:42.446Z,100714.34
2022-10-31T00:36:13.943Z,100664.41
2022-10-31T00:38:42.651Z,100708.31
2022-10-31T00:41:10.770Z,100699.69
2022-10-31T00:43:41.453Z,100711.75
2022-10-31T00:46:10.110Z,100720.31
2022-10-31T00:48:37.218Z,100710.00
2022-10-31T00:51:04.570Z,100685.91
2022-10-31T00:53:31.901Z,100716.03
2022-10-31T00:56:00.759Z,100715.16
2022-10-31T00:58:27.970Z,100663.53
2022-10-31T01:00:58.135Z,100697.97
2022-10-31T01:03:31.217Z,100720.34
2022-10-31T01:06:06.554Z,100716.91
2022-10-31T01:08:34.461Z,100716.00
2022-10-31T01:11:07.006Z,100723.75
2022-10-31T01:13:35.456Z,100716.84
2022-10-31T01:16:03.916Z,100712.56
2022-10-31T01:18:33.172Z,100706.56
2022-10-31T01:21:12.047Z,100715.16
2022-10-31T01:23:39.686Z,100717.75
2022-10-31T01:26:15.460Z,100713.44
2022-10-31T01:28:48.756Z,100723.75
2022-10-31T01:31:17.929Z,100718.59
2022-10-31T01:33:45.852Z,100711.72
2022-10-31T01:36:18.110Z,100712.56
2022-10-31T01:38:46.298Z,100704.78
2022-10-31T01:41:16.472Z,100705.66
2022-10-31T01:43:56.400Z,100697.94
2022-10-31T01:46:34.396Z,100704.84
2022-10-31T01:49:05.535Z,100710.88
2022-10-31T01:51:40.428Z,100716.91
2022-10-31T01:54:11.231Z,100685.91
2022-10-31T01:56:44.024Z,100718.63
2022-10-31T01:59:18.940Z,100727.25
2022-10-31T02:01:47.162Z,100718.66
2022-10-31T02:04:16.202Z,100716.03
2022-10-31T02:06:51.432Z,100708.28
2022-10-31T02:09:24.632Z,100679.03
2022-10-31T02:11:59.022Z,100719.50
2022-10-31T02:14:29.095Z,100726.38
2022-10-31T02:16:56.652Z,100722.09
2022-10-31T02:19:52.875Z,100721.22
2022-10-31T02:22:45.538Z,100724.69
2022-10-31T02:25:19.630Z,100725.53
2022-10-31T02:27:49.857Z,100728.97
2022-10-31T02:30:24.860Z,100726.38
2022-10-31T02:32:59.076Z,100682.50
2022-10-31T02:35:51.404Z,100728.97
2022-10-31T02:38:21.353Z,100718.59
2022-10-31T02:40:49.833Z,100722.06
2022-10-31T02:44:21.462Z,100722.91
2022-10-31T02:47:00.741Z,100709.97
2022-10-31T02:49:38.235Z,100734.09
2022-10-31T02:52:17.834Z,100726.38
2022-10-31T02:54:45.941Z,100712.56
2022-10-31T02:57:14.401Z,100727.25
2022-10-31T02:59:48.365Z,100717.75
2022-10-31T03:02:37.293Z,100716.88
2022-10-31T03:05:28.817Z,100722.91
2022-10-31T03:08:13.393Z,100725.50
2022-10-31T03:10:55.233Z,100727.22
2022-10-31T03:13:55.913Z,100722.91
2022-10-31T03:16:35.991Z,100728.94
2022-10-31T03:19:41.175Z,100724.63
2022-10-31T03:22:16.779Z,100715.16
2022-10-31T03:24:46.159Z,100734.13
2022-10-31T03:27:17.136Z,100734.13
2022-10-31T03:29:46.241Z,100704.81
2022-10-31T03:32:21.950Z,100739.25
2022-10-31T03:34:51.835Z,100738.41
2022-10-31T03:37:21.073Z,100648.06
2022-10-31T03:39:50.926Z,100742.72
2022-10-31T03:42:32.821Z,100731.50
2022-10-31T03:45:09.047Z,100745.25
2022-10-31T03:47:39.205Z,100747.88
2022-10-31T03:50:08.750Z,100744.41
2022-10-31T03:52:51.112Z,100744.38
2022-10-31T03:55:18.292Z,100745.25
2022-10-31T03:58:01.739Z,100748.72
2022-10-31T04:00:31.771Z,100732.34
2022-10-31T04:03:10.777Z,100746.16
2022-10-31T04:05:42.052Z,100740.97
2022-10-31T04:08:14.264Z,100753.91
2022-10-31T04:10:45.111Z,100742.69
2022-10-31T04:13:16.015Z,100749.63
2022-10-31T04:15:51.037Z,100759.97
2022-10-31T04:18:19.089Z,100716.91
2022-10-31T04:20:49.796Z,100745.31
2022-10-31T04:23:24.472Z,100762.56
2022-10-31T04:25:51.973Z,100759.09
2022-10-31T04:30:47.152Z,100761.69
2022-10-31T04:33:14.600Z,100758.22
2022-10-31T04:35:44.125Z,100710.06
2022-10-31T04:38:11.867Z,100760.00
2022-10-31T04:40:40.356Z,100753.06
2022-10-31T04:43:30.359Z,100741.03
2022-10-31T04:46:00.202Z,100738.47
2022-10-31T04:48:27.438Z,100707.47
2022-10-31T04:50:54.631Z,100736.75
2022-10-31T04:53:22.362Z,100750.53
2022-10-31T04:56:09.691Z,100680.81
2022-10-31T04:58:41.709Z,100746.22
2022-10-31T05:01:11.029Z,100753.97
2022-10-31T05:03:40.432Z,100725.56
2022-10-31T05:06:08.574Z,100756.56
2022-10-31T05:08:37.003Z,100739.34
2022-10-31T05:11:06.812Z,100758.31
2022-10-31T05:13:34.605Z,100751.38
2022-10-31T05:16:14.073Z,100716.97
2022-10-31T05:18:47.309Z,100746.22
2022-10-31T05:21:33.256Z,100719.56
2022-10-31T05:24:03.106Z,100728.16
2022-10-31T05:26:30.920Z,100742.78
2022-10-31T05:28:58.052Z,100754.00
2022-10-31T05:31:25.281Z,100751.44
2022-10-31T05:33:54.372Z,100764.34
2022-10-31T05:36:40.192Z,100766.06
2022-10-31T05:39:16.273Z,100767.81
2022-10-31T05:41:47.764Z,100765.25
2022-10-31T05:44:25.330Z,100748.00
2022-10-31T05:46:58.985Z,100776.44
2022-10-31T05:49:44.871Z,100785.94
2022-10-31T05:52:24.301Z,100777.31
2022-10-31T05:54:58.902Z,100785.91
2022-10-31T05:57:26.060Z,100788.50
2022-10-31T05:59:55.198Z,100785.91
2022-10-31T06:02:24.211Z,100785.94
2022-10-31T06:05:09.907Z,100799.72
2022-10-31T06:07:38.762Z,100763.53
2022-10-31T06:10:08.831Z,100804.03
2022-10-31T06:12:41.726Z,100800.59
2022-10-31T06:15:31.794Z,100785.94
2022-10-31T06:18:05.507Z,100769.59
2022-10-31T06:20:44.545Z,100798.00
2022-10-31T06:23:11.791Z,100787.63
2022-10-31T06:25:40.924Z,100758.34
2022-10-31T06:28:09.134Z,100810.91
2022-10-31T06:30:51.643Z,100808.34
2022-10-31T06:33:19.400Z,100817.81
2022-10-31T06:35:56.455Z,100822.13
2022-10-31T06:38:24.227Z,100818.69
2022-10-31T06:40:52.212Z,100813.50
2022-10-31T06:43:24.103Z,100828.19
2022-10-31T06:46:10.507Z,100785.94
2022-10-31T06:48:47.516Z,100828.16
2022-10-31T06:51:19.252Z,100830.75
2022-10-31T06:53:46.703Z,100827.31
2022-10-31T06:56:16.610Z,100823.88
2022-10-31T06:58:48.875Z,100822.13
2022-10-31T07:01:18.464Z,100748.03
2022-10-31T07:03:45.803Z,100786.81
2022-10-31T07:06:12.980Z,100810.06
2022-10-31T07:08:40.442Z,100775.56
2022-10-31T07:11:08.016Z,100792.81
2022-10-31T07:13:35.327Z,100831.56
2022-10-31T07:16:08.564Z,100819.53
2022-10-31T07:18:36.940Z,100820.38
2022-10-31T07:21:04.793Z,100837.59
2022-10-31T07:23:32.629Z,100843.66
2022-10-31T07:26:25.715Z,100839.31
2022-10-31T07:28:52.922Z,100849.69
2022-10-31T07:31:23.071Z,100840.22
2022-10-31T07:33:52.111Z,100857.44
2022-10-31T07:36:28.415Z,100838.50
2022-10-31T07:39:00.263Z,100835.06
2022-10-31T07:41:27.625Z,100835.06
2022-10-31T07:43:54.985Z,100789.38
2022-10-31T07:46:41.123Z,100862.66
2022-10-31T07:49:24.206Z,100855.72
2022-10-31T07:52:11.606Z,100866.06
2022-10-31T07:54:50.900Z,100874.69
2022-10-31T07:57:25.030Z,100839.31
2022-10-31T07:59:52.808Z,100869.53
2022-10-31T08:02:20.262Z,100863.47
2022-10-31T08:05:22.348Z,100854.88
2022-10-31T08:08:10.352Z,100885.91
2022-10-31T08:10:38.723Z,100882.44
2022-10-31T08:13:11.211Z,100879.81
2022-10-31T08:15:43.233Z,100885.91
2022-10-31T08:18:14.565Z,100878.97
2022-10-31T08:20:43.186Z,100888.47
2022-10-31T08:23:11.934Z,100842.78
2022-10-31T08:25:40.042Z,100885.88
2022-10-31T08:28:08.491Z,100822.13
2022-10-31T08:30:37.691Z,100832.41
2022-10-31T08:33:23.179Z,100885.84
2022-10-31T08:36:09.364Z,100786.75
2022-10-31T08:39:02.279Z,100887.56
2022-10-31T08:41:31.824Z,100891.00
2022-10-31T08:44:00.731Z,100892.69
2022-10-31T08:46:27.876Z,100883.19
2022-10-31T08:48:55.174Z,100836.66
2022-10-31T08:51:23.583Z,100890.94
2022-10-31T08:53:53.871Z,100880.59
2022-10-31T08:56:36.454Z,100882.34
2022-10-31T08:59:10.504Z,100890.94
2022-10-31T09:01:59.592Z,100885.78
2022-10-31T09:04:26.776Z,100893.53
2022-10-31T09:07:20.293Z,100894.41
2022-10-31T09:09:42.655Z,100889.19
2022-10-31T09:12:10.512Z,100877.16
2022-10-31T09:15:07.983Z,100890.94
2022-10-31T09:17:58.207Z,100794.44
2022-10-31T09:20:50.713Z,100892.66
2022-10-31T09:23:19.215Z,100894.34
2022-10-31T09:25:50.405Z,100887.44
2022-10-31T09:28:36.761Z,100894.34
2022-10-31T09:31:08.520Z,100883.97
2022-10-31T09:33:55.090Z,100884.00
2022-10-31T09:36:39.439Z,100903.00
2022-10-31T09:39:09.834Z,100854.72
2022-10-31T09:42:20.051Z,100888.34
2022-10-31T09:45:16.034Z,100904.69
2022-10-31T09:47:52.141Z,100901.19
2022-10-31T09:50:58.950Z,100896.00
2022-10-31T09:53:51.763Z,100902.94
2022-10-31T09:56:24.110Z,100908.13
2022-10-31T09:59:02.062Z,100891.75
2022-10-31T10:01:32.966Z,100912.44
2022-10-31T10:04:06.621Z,100906.41
2022-10-31T10:06:55.606Z,100879.69
2022-10-31T10:09:54.996Z,100916.66
2022-10-31T10:13:17.274Z,100920.16
2022-10-31T10:15:47.261Z,100921.84
2022-10-31T10:18:34.281Z,100920.09
2022-10-31T10:21:20.042Z,100930.44
2022-10-31T10:24:13.162Z,100925.22
2022-10-31T10:27:07.262Z,100925.22
2022-10-31T10:30:03.084Z,100926.94
2022-10-31T10:32:35.741Z,100920.00
2022-10-31T10:35:17.954Z,100925.22
2022-10-31T10:37:47.638Z,100880.34
2022-10-31T10:40:28.181Z,100911.31
2022-10-31T10:43:23.846Z,100918.25
2022-10-31T10:46:15.783Z,100925.13
2022-10-31T10:48:49.590Z,100917.28
2022-10-31T10:52:02.648Z,100920.72
2022-10-31T10:55:00.559Z,100909.47
2022-10-31T10:57:33.775Z,100912.00
2022-10-31T11:00:04.825Z,100906.78
2022-10-31T11:02:34.152Z,100900.72
2022-10-31T11:05:02.922Z,100861.09
2022-10-31T11:07:41.341Z,100902.38
2022-10-31T11:10:17.695Z,100878.25
2022-10-31T11:12:59.338Z,100880.78
2022-10-31T11:15:28.961Z,100861.88
2022-10-31T11:17:57.400Z,100898.09
2022-10-31T11:20:32.022Z,100889.44
2022-10-31T11:23:18.832Z,100902.34
2022-10-31T11:25:52.721Z,100899.78
2022-10-31T11:28:19.978Z,100892.91
2022-10-31T11:30:57.293Z,100905.84
2022-10-31T11:33:47.285Z,100886.88
2022-10-31T11:36:22.771Z,100914.47
2022-10-31T11:38:51.197Z,100905.78
2022-10-31T11:41:41.251Z,100910.97
2022-10-31T11:44:29.764Z,100898.88
2022-10-31T11:47:01.481Z,100908.41
2022-10-31T11:49:37.434Z,100885.13
2022-10-31T11:52:18.787Z,100905.75
2022-10-31T11:54:54.923Z,100912.69
2022-10-31T11:57:30.884Z,100910.97
2022-10-31T12:00:00.871Z,100900.69
2022-10-31T12:02:28.788Z,100898.91
2022-10-31T12:05:21.422Z,100900.63
2022-10-31T12:07:50.199Z,100897.13
2022-10-31T12:10:20.895Z,100897.09
2022-10-31T12:12:50.962Z,100901.38
2022-10-31T12:15:34.866Z,100837.69
2022-10-31T12:18:29.232Z,100898.72
2022-10-31T12:21:09.106Z,100897.03
2022-10-31T12:24:02.496Z,100904.78
2022-10-31T12:26:54.076Z,100901.34
2022-10-31T12:29:42.066Z,100907.41
2022-10-31T12:32:30.455Z,100903.91
2022-10-31T12:35:16.429Z,100897.84
2022-10-31T12:38:02.551Z,100898.72
2022-10-31T12:40:33.054Z,100895.28
2022-10-31T12:43:25.862Z,100887.56
2022-10-31T12:45:58.733Z,100889.22
2022-10-31T12:49:15.295Z,100854.78
2022-10-31T12:52:02.348Z,100881.41
2022-10-31T12:55:04.870Z,100878.03
2022-10-31T12:57:34.872Z,100887.47
2022-10-31T13:00:15.422Z,100883.13
2022-10-31T13:03:06.816Z,100883.09
2022-10-31T13:05:40.320Z,100882.25
2022-10-31T13:08:17.694Z,100881.31
2022-10-31T13:10:49.737Z,100873.53
2022-10-31T13:13:28.105Z,100871.81
2022-10-31T13:16:20.114Z,100858.00
2022-10-31T13:18:54.097Z,100835.63
2022-10-31T13:21:56.545Z,100829.66
2022-10-31T13:24:37.056Z,100873.53
2022-10-31T13:27:14.566Z,100887.38
2022-10-31T13:30:02.225Z,100874.38
2022-10-31T13:32:39.684Z,100842.59
2022-10-31T13:35:12.118Z,100850.31
2022-10-31T13:37:54.698Z,100879.56
2022-10-31T13:40:37.480Z,100878.72
2022-10-31T13:43:44.176Z,100877.81
2022-10-31T13:46:33.106Z,100870.88
2022-10-31T13:49:01.293Z,100846.78
2022-10-31T13:51:35.366Z,100870.03
2022-10-31T13:54:20.956Z,100869.16
2022-10-31T13:56:53.435Z,100843.31
2022-10-31T13:59:24.188Z,100870.00
2022-10-31T14:01:56.455Z,100858.75
2022-10-31T14:04:26.210Z,100858.75
2022-10-31T14:07:13.671Z,100865.69
2022-10-31T14:10:20.072Z,100857.03
2022-10-31T14:12:49.938Z,100851.88
2022-10-31T14:15:21.437Z,100857.03
2022-10-31T14:17:52.874Z,100850.09
2022-10-31T14:20:20.933Z,100843.16
2022-10-31T14:22:48.303Z,100847.50
2022-10-31T14:25:34.623Z,100851.84
2022-10-31T14:28:05.100Z,100844.94
2022-10-31T14:30:32.952Z,100855.34
2022-10-31T14:33:03.289Z,100846.69
2022-10-31T14:35:52.753Z,100851.88
2022-10-31T14:38:45.953Z,100854.50
2022-10-31T14:41:47.225Z,100851.06
2022-10-31T14:45:09.891Z,100850.19
2022-10-31T14:48:07.083Z,100852.81
2022-10-31T14:50:53.745Z,100853.66
2022-10-31T14:53:30.662Z,100857.16
2022-10-31T14:56:02.843Z,100859.72
2022-10-31T14:58:33.776Z,100812.38
2022-10-31T15:01:01.353Z,100858.91
2022-10-31T15:03:35.655Z,100859.72
2022-10-31T15:06:15.489Z,100860.66
2022-10-31T15:08:48.311Z,100863.25
2022-10-31T15:11:18.694Z,100871.88
2022-10-31T15:13:56.314Z,100876.25
2022-10-31T15:16:23.585Z,100879.72
2022-10-31T15:18:57.665Z,100879.72
2022-10-31T15:21:26.995Z,100877.16
2022-10-31T15:23:56.826Z,100864.31
2022-10-31T15:26:28.343Z,100891.03
2022-10-31T15:29:03.997Z,100893.66
2022-10-31T15:31:32.636Z,100882.41
2022-10-31T15:34:08.456Z,100889.31
2022-10-31T15:36:38.373Z,100859.19
2022-10-31T15:39:06.172Z,100891.91
2022-10-31T15:41:43.662Z,100885.00
2022-10-31T15:44:31.606Z,100893.69
2022-10-31T15:47:05.455Z,100892.81
2022-10-31T15:49:48.366Z,100897.13
2022-10-31T15:52:40.008Z,100905.81
2022-10-31T15:55:12.403Z,100904.94
2022-10-31T15:57:45.373Z,100904.09
2022-10-31T16:00:42.045Z,100909.28
2022-10-31T16:03:24.842Z,100904.09
2022-10-31T16:05:54.841Z,100905.81
2022-10-31T16:08:35.710Z,100902.34
2022-10-31T16:11:09.130Z,100904.09
2022-10-31T16:13:39.291Z,100905.84
2022-10-31T16:19:05.900Z,100906.69
2022-10-31T16:21:37.602Z,100904.97
2022-10-31T16:24:16.724Z,100899.78
2022-10-31T16:26:52.255Z,100907.56
2022-10-31T16:29:34.841Z,100911.91
2022-10-31T16:32:02.248Z,100911.06
2022-10-31T16:34:29.414Z,100878.34
2022-10-31T16:36:56.562Z,100823.31
2022-10-31T16:39:23.867Z,100921.47
2022-10-31T16:41:53.828Z,100911.94
2022-10-31T16:44:24.805Z,100904.19
2022-10-31T16:47:14.809Z,100911.16
2022-10-31T16:49:47.730Z,100907.66
2022-10-31T16:52:15.132Z,100908.56
2022-10-31T16:54:42.363Z,100899.97
2022-10-31T16:57:18.561Z,100884.44
2022-10-31T16:59:49.610Z,100922.38
2022-10-31T17:02:18.232Z,100911.19
2022-10-31T17:04:45.576Z,100877.56
2022-10-31T17:07:12.646Z,100902.53
2022-10-31T17:09:39.996Z,100856.91
2022-10-31T17:12:12.828Z,100915.47
2022-10-31T17:14:40.323Z,100921.53
2022-10-31T17:17:08.822Z,100894.81
2022-10-31T17:19:36.102Z,100906.00
2022-10-31T17:22:03.363Z,100906.06
2022-10-31T17:24:30.936Z,100913.78
2022-10-31T17:26:58.137Z,100865.59
2022-10-31T17:29:25.262Z,100869.91
2022-10-31T17:31:52.432Z,100912.06
2022-10-31T17:34:19.604Z,100886.25
2022-10-31T17:36:53.601Z,100916.38
2022-10-31T17:39:21.457Z,100919.81
2022-10-31T17:41:52.541Z,100919.81
2022-10-31T17:44:20.166Z,100897.44
2022-10-31T17:46:47.518Z,100914.63
2022-10-31T17:49:15.176Z,100911.19
2022-10-31T17:51:42.587Z,100912.88
2022-10-31T17:54:11.325Z,100911.19
2022-10-31T17:56:38.381Z,100911.19
2022-10-31T18:01:33.636Z,100906.84
2022-10-31T18:04:01.021Z,100852.63
2022-10-31T18:06:28.099Z,100906.84
2022-10-31T18:08:58.113Z,100902.53
2022-10-31T18:11:25.361Z,100864.63
2022-10-31T18:13:59.808Z,100838.88
2022-10-31T18:16:27.536Z,100876.69
2022-10-31T18:18:59.457Z,100900.81
2022-10-31T18:21:26.796Z,100829.28
2022-10-31T18:23:55.293Z,100838.75
2022-10-31T18:26:23.587Z,100887.00
2022-10-31T18:28:50.732Z,100893.91
2022-10-31T18:31:18.042Z,100887.91
2022-10-31T18:33:45.667Z,100886.16
2022-10-31T18:36:13.513Z,100892.22
2022-10-31T18:38:42.686Z,100883.59
2022-10-31T18:41:09.840Z,100879.31
2022-10-31T18:43:37.621Z,100885.31
2022-10-31T18:46:07.535Z,100882.75
2022-10-31T18:48:35.196Z,100869.88
2022-10-31T18:51:06.071Z,100887.94
2022-10-31T18:53:33.414Z,100880.16
2022-10-31T18:56:01.265Z,100858.63
2022-10-31T18:58:29.201Z,100861.28
2022-10-31T19:00:56.425Z,100858.72
2022-10-31T19:03:27.558Z,100894.03
2022-10-31T19:05:56.242Z,100891.41
2022-10-31T19:08:24.357Z,100874.97
2022-10-31T19:10:51.664Z,100840.56
2022-10-31T19:13:18.872Z,100845.72
2022-10-31T19:15:46.300Z,100846.56
2022-10-31T19:18:13.654Z,100876.72
2022-10-31T19:20:40.793Z,100868.94
2022-10-31T19:23:08.110Z,100870.66
2022-10-31T19:25:35.443Z,100864.63
2022-10-31T19:28:02.824Z,100863.78
2022-10-31T19:30:30.225Z,100833.66
2022-10-31T19:32:57.632Z,100872.41
2022-10-31T19:35:24.890Z,100794.06
2022-10-31T19:37:52.024Z,100847.44
2022-10-31T19:40:19.325Z,100868.09
2022-10-31T19:42:46.640Z,100875.00
2022-10-31T19:45:13.952Z,100871.56
2022-10-31T19:47:41.274Z,100855.22
2022-10-31T19:50:09.249Z,100844.03
2022-10-31T19:52:36.413Z,100875.06
2022-10-31T19:55:03.983Z,100871.53
2022-10-31T19:57:56.522Z,100872.41
2022-10-31T20:00:22.810Z,100873.28
2022-10-31T20:02:49.905Z,100840.56
2022-10-31T20:05:17.252Z,100845.75
2022-10-31T20:07:44.425Z,100831.97
2022-10-31T20:10:12.024Z,100826.78
2022-10-31T20:12:39.625Z,100857.78
2022-10-31T20:15:07.057Z,100861.22
2022-10-31T20:17:34.271Z,100859.50
2022-10-31T20:20:07.352Z,100861.19
2022-10-31T20:22:36.110Z,100857.75
2022-10-31T20:25:04.176Z,100857.75
2022-10-31T20:27:32.121Z,100828.50
2022-10-31T20:29:59.436Z,100826.75
2022-10-31T20:32:26.802Z,100806.13
2022-10-31T20:34:54.061Z,100859.50
2022-10-31T20:37:21.234Z,100839.66
2022-10-31T20:39:50.369Z,100826.69
2022-10-31T20:42:22.237Z,100818.13
2022-10-31T20:44:49.440Z,100845.69
2022-10-31T20:47:18.492Z,100859.50
2022-10-31T20:49:47.710Z,100821.63
2022-10-31T20:52:14.791Z,100831.94
2022-10-31T20:54:42.062Z,100802.63
2022-10-31T20:57:09.206Z,100813.84
2022-10-31T20:59:36.401Z,100852.56
2022-10-31T21:02:03.726Z,100850.84
2022-10-31T21:04:30.935Z,100847.38
2022-10-31T21:06:58.053Z,100821.56
2022-10-31T21:09:25.234Z,100775.13
2022-10-31T21:11:52.451Z,100849.16
2022-10-31T21:14:19.722Z,100841.38
2022-10-31T21:16:46.894Z,100852.56
2022-10-31T21:19:14.042Z,100838.78
2022-10-31T21:21:41.425Z,100809.56
2022-10-31T21:24:14.012Z,100813.84
2022-10-31T21:26:44.567Z,100850.00
2022-10-31T21:29:13.196Z,100849.13
2022-10-31T21:31:41.481Z,100819.84
2022-10-31T21:34:09.616Z,100846.53
2022-10-31T21:36:37.327Z,100840.47
2022-10-31T21:39:06.983Z,100837.88
2022-10-31T21:41:34.347Z,100840.47
2022-10-31T21:44:01.766Z,100830.19
2022-10-31T21:46:31.475Z,100806.06
2022-10-31T21:48:59.005Z,100826.66
2022-10-31T21:51:32.574Z,100824.94
2022-10-31T21:54:18.684Z,100823.22
2022-10-31T21:56:46.217Z,100825.78
2022-10-31T21:59:13.632Z,100797.34
2022-10-31T22:01:40.886Z,100740.59
2022-10-31T22:04:08.277Z,100815.41
2022-10-31T22:06:36.929Z,100808.47
2022-10-31T22:09:06.585Z,100804.13
2022-10-31T22:11:34.619Z,100804.13
2022-10-31T22:14:03.016Z,100779.19
2022-10-31T22:16:31.562Z,100800.69
2022-10-31T22:19:00.466Z,100780.06
2022-10-31T22:21:28.955Z,100804.94
2022-10-31T22:24:01.956Z,100798.91
2022-10-31T22:26:32.828Z,100794.56
2022-10-31T22:29:03.734Z,100765.31
2022-10-31T22:31:32.462Z,100787.66
2022-10-31T22:34:00.230Z,100796.34
2022-10-31T22:36:30.262Z,100792.03
2022-10-31T22:38:58.947Z,100775.63
2022-10-31T22:41:31.863Z,100797.13
2022-10-31T22:43:59.928Z,100800.63
2022-10-31T22:46:30.572Z,100767.91
2022-10-31T22:49:00.398Z,100789.41
2022-10-31T22:51:33.408Z,100791.97
2022-10-31T22:54:00.863Z,100793.69
2022-10-31T22:56:34.097Z,100785.03
2022-10-31T22:59:02.304Z,100714.53
2022-10-31T23:01:33.810Z,100783.31
2022-10-31T23:04:02.088Z,100779.84
2022-10-31T23:06:31.302Z,100749.69
2022-10-31T23:09:01.338Z,100772.94
2022-10-31T23:11:54.909Z,100769.53
2022-10-31T23:14:22.119Z,100781.59
2022-10-31T23:16:54.564Z,100780.72
2022-10-31T23:19:28.279Z,100784.19
2022-10-31T23:22:02.309Z,100779.88
2022-10-31T23:24:36.509Z,100781.59
2022-10-31T23:27:11.895Z,100779.91
2022-10-31T23:29:50.917Z,100779.91
2022-10-31T23:32:32.664Z,100779.91
2022-10-31T23:35:02.769Z,100755.81
2022-10-31T23:37:32.266Z,100766.09
2022-10-31T23:39:59.939Z,100774.72
2022-10-31T23:42:28.300Z,100773.03
2022-10-31T23:44:55.883Z,100768.72
2022-10-31T23:47:23.734Z,100762.63
2022-10-31T23:49:51.295Z,100769.53
2022-10-31T23:52:19.296Z,100764.34
2022-10-31T23:54:46.520Z,100740.31
2022-10-31T23:57:15.482Z,100767.88
2022-10-31T23:59:42.942Z,100736.88
